Str. Kaye Barker — WCF3012 — position and weather

sailwx.info

Track history (hours):
 
Tides and Currents Weather Stations Pressure Air Temp Water Temp Dewpoint Dewpoint Depression Visibility Wind Speed Wind Dir Waves Ship Positions

Str. Kaye Barker

Owner: THE INTERLAKE STEAMSHIP COMPANY, Middleburg Heights, OH. More information available from US FCC via Universal Licensing System and Coast Guard Vessel Documentation Center.

Last reported at 2018-Jan-09 16:50 UTC. Time now 2018-Feb-24 04:03 UTC.
Position N 46°44' W 092°05'.
Warning: this ship's position is 45 days out of date.

Length 223 m; draft 7.9 m.

Type: Cargo ship. MMSI: 366904910.

Date/timePositionNaut miles runAvg speedWind from/ knotsBaromVisibWave heightAir tempDewpointWater temp
2018-Jan-09 16:50N 46°44' W 092°05'0 0.0
2018-Jan-09 16:30N 46°44' W 092°05'0 0.0
2018-Jan-09 16:01N 46°44' W 092°05'0 0.0
2018-Jan-09 15:31N 46°44' W 092°05'0 0.1
2018-Jan-09 15:00N 46°44' W 092°06'2157.0
2018-Jan-09 15:00N 46°42' W 092°06'3 5.5 110 / 31020.3 -5.7 -0.0
2018-Jan-09 14:30N 46°45' W 092°06'1 2.5
2018-Jan-09 14:00N 46°46' W 092°06'2141.9
2018-Jan-09 14:00N 46°48' W 092°06'4 7.6 330 / 11020.3 -7.6 -0.0
2018-Jan-09 13:30N 46°48' W 092°01'612.5
2018-Jan-09 13:00N 46°52' W 091°53'2261.9
2018-Jan-09 13:00N 46°54' W 091°54'714.0 010 / 61020.3 -5.5 1.0
2018-Jan-09 12:30N 46°55' W 091°44'714.2
2018-Jan-09 12:00N 47°00' W 091°36'1413.7 020 / 81020.0 -5.0 2.0
2018-Jan-09 11:00N 47°06' W 091°18'1413.6 070 / 61020.0 -4.5 1.5
2018-Jan-09 10:00N 47°12' W 091°00'1010.1 340 / 61020.0 -5.0 1.3
2018-Jan-09 09:00N 47°18' W 090°48'1413.6 010 / 91020.3 -6.0 1.4
2018-Jan-09 08:00N 47°24' W 090°30'1717.1 340 / 91019.6 -6.1 1.5
2018-Jan-09 07:00N 47°36' W 090°12'1413.5 310 / 131018.6 -5.8 1.5
2018-Jan-09 06:00N 47°42' W 089°54'2814.1 340 / 161017.6 -6.4 0.8
2018-Jan-09 04:00N 47°42' W 089°12'1212.1 330 / 211015.9 -6.4 1.2
2018-Jan-09 03:00N 47°42' W 088°54'1212.1 310 / 251014.6 -6.2 1.4
2018-Jan-09 02:00N 47°42' W 088°36'1010.1 320 / 321012.9 -5.6 1.6
2018-Jan-09 01:00N 47°36' W 088°24'1212.1 320 / 321012.2 -4.6 1.6
2018-Jan-09 00:00N 47°36' W 088°06'1010.1 310 / 261012.2 -4.3 1.9
2018-Jan-08 23:00N 47°30' W 087°54'8 8.1 310 / 261010.5 -3.5 1.0
2018-Jan-08 22:00N 47°30' W 087°42'1212.0 320 / 321007.8 -3.4 -0.0
2018-Jan-08 21:00N 47°18' W 087°42'1413.6 300 / 341007.1 -2.9 -0.0
2018-Jan-08 20:00N 47°12' W 088°00'1514.5 290 / 321005.8 -1.6 0.1
2018-Jan-08 19:00N 47°00' W 088°12'0 0.0 280 / 351004.1 -0.4 0.4
2018-Jan-08 18:00N 47°00' W 088°12'0 0.0 280 / 291004.7 -0.1 0.3
2018-Jan-08 17:00N 47°00' W 088°12'0 0.0 280 / 271004.7 -0.0 0.3
2018-Jan-08 16:00N 47°00' W 088°12'0 0.0 280 / 281003.7 0.4 0.3
2018-Jan-08 15:00N 47°00' W 088°12'0 0.0 270 / 281003.0 0.2 0.2
2018-Jan-08 14:00N 47°00' W 088°12'0 0.0 250 / 241003.0 -0.3 0.2
2018-Jan-08 13:00N 47°00' W 088°12'0 0.0 240 / 221003.0 -0.6 0.2
2018-Jan-08 12:00N 47°00' W 088°12'0 0.0 240 / 251003.7 -0.9 0.2
2018-Jan-08 11:00N 47°00' W 088°12'0 0.0 250 / 201004.1 -0.9 0.2
2018-Jan-08 10:00N 47°00' W 088°12'0 0.0 260 / 191004.4 -1.0 0.2
2018-Jan-08 09:00N 47°00' W 088°12'0 0.0 280 / 291003.7 -1.1 0.2
2018-Jan-08 08:00N 47°00' W 088°12'0 0.0 290 / 261003.4 -1.1 0.2
2018-Jan-08 07:00N 47°00' W 088°12'0 0.0 260 / 161004.1 -1.3 0.2
2018-Jan-08 06:00N 47°00' W 088°12'0 0.0 240 / 211003.7 -1.9 0.2
2018-Jan-08 05:00N 47°00' W 088°12'0 0.0 240 / 221003.7 -2.6 0.2
2018-Jan-08 04:00N 47°00' W 088°12'0 0.0 250 / 211003.7 -2.7 0.2
2018-Jan-08 03:00N 47°00' W 088°12'0 0.0 260 / 211004.1 -2.5 0.2
2018-Jan-08 02:00N 47°00' W 088°12'0 0.0 250 / 221004.4 -2.1 0.2
2018-Jan-08 01:00N 47°00' W 088°12'0 0.0 240 / 171004.7 -1.4 0.2
2018-Jan-08 00:00N 47°00' W 088°12'0 0.0 230 / 101005.4 -2.0 0.2
2018-Jan-07 23:00N 47°00' W 088°12'0 0.0 230 / 21005.8 -3.1 0.1
2018-Jan-07 22:00N 47°00' W 088°12'0 0.0 260 / 51005.4 -3.6 0.2
2018-Jan-07 21:00N 47°00' W 088°12'0 0.0 270 / 101005.4 -3.9 0.2
2018-Jan-07 20:00N 47°00' W 088°12'0 0.0 250 / 131005.4 -4.6 0.2
2018-Jan-07 19:00N 47°00' W 088°12'0 0.0 240 / 191006.1 -5.0 0.2
2018-Jan-07 18:00N 47°00' W 088°12'0 0.0 240 / 211006.4 -5.4 0.2
2018-Jan-07 17:00N 47°00' W 088°12'0 0.0 240 / 221007.5 -5.8 0.2
2018-Jan-07 16:00N 47°00' W 088°12'0 0.0 240 / 261008.1 -6.3 0.2
2018-Jan-07 15:00N 47°00' W 088°12'6 6.0 240 / 281008.1 -7.2 0.2
2018-Jan-07 14:00N 47°06' W 088°12'7 7.3 240 / 231008.8 -7.0 0.2
2018-Jan-07 13:00N 47°00' W 088°06'8 8.2 220 / 261008.5 -8.1 0.2
2018-Jan-07 12:00N 47°00' W 087°54'1413.7 220 / 221009.8 -8.1 0.4
2018-Jan-07 11:00N 46°54' W 087°36'1010.2 220 / 151011.2 -8.6 0.1
2018-Jan-07 10:00N 46°48' W 087°24'1312.7 210 / 191012.5 -8.6 0.6
2018-Jan-07 09:00N 46°36' W 087°18'8 8.2 200 / 331013.5 -9.9 0.7
2018-Jan-07 08:00N 46°36' W 087°06'8 8.2 200 / 311014.6 -10.0 0.4
2018-Jan-07 07:00N 46°36' W 086°54'8 8.2 190 / 341016.3 -10.9 0.2
2018-Jan-07 06:00N 46°36' W 086°42'1010.2 180 / 321017.9 -11.7 0.9
2018-Jan-07 05:00N 46°42' W 086°30'1212.3 200 / 351019.3 -11.1 0.9
2018-Jan-07 04:00N 46°42' W 086°12'1413.7 200 / 351021.3 -11.0 -0.0
2018-Jan-07 03:00N 46°48' W 085°54'1212.3 210 / 221023.7 -12.4 0.1
2018-Jan-07 02:00N 46°48' W 085°36'1212.3 170 / 221025.4 -13.8 0.9
2018-Jan-07 01:00N 46°48' W 085°18'1212.3 190 / 211026.8 -14.7 -0.0
2018-Jan-07 00:00N 46°48' W 085°00'1514.6 180 / 181028.8 -15.3 -0.0
2018-Jan-06 23:00N 46°36' W 084°48'1010.2 200 / 141030.1 -15.3 -0.0
2018-Jan-06 22:00N 46°30' W 084°36'8 8.3 190 / 91031.2 -17.1 -0.0
2018-Jan-06 21:00N 46°30' W 084°24'0 0.0 180 / 81031.2 -18.4 -0.0
2018-Jan-06 20:00N 46°30' W 084°24'0 0.0 220 / 51031.5 -18.8 0.2
2018-Jan-06 19:00N 46°30' W 084°24'0 0.0 220 / 41032.2 -19.3 0.2
2018-Jan-06 18:00N 46°30' W 084°24'0 0.0 200 / 41032.8 -19.8 0.2
2018-Jan-06 17:00N 46°30' W 084°24'0 0.0 090 / 21032.8 -20.2 0.4
2018-Jan-06 16:00N 46°30' W 084°24'0 0.0 1033.5 -22.5 0.3
2018-Jan-06 15:00N 46°30' W 084°24'0 0.0 310 / 41033.2 -25.8 0.3
2018-Jan-06 14:00N 46°30' W 084°24'0 0.0 320 / 21032.5 -27.1 0.4
2018-Jan-06 13:00N 46°30' W 084°24'0 0.0 290 / 41032.2 -27.9 0.3
2018-Jan-06 12:00N 46°30' W 084°24'0 0.0 310 / 41031.5 -26.5 0.4
2018-Jan-06 11:00N 46°30' W 084°24'0 0.0 300 / 31031.2 -27.7 0.6
2018-Jan-06 10:00N 46°30' W 084°24'0 0.0 240 / 41030.8 -26.5 0.6
2018-Jan-06 09:00N 46°30' W 084°24'0 0.0 330 / 31029.8 -26.6 0.6
2018-Jan-06 08:00N 46°30' W 084°24'0 0.0 310 / 31029.8 -26.2 0.5
2018-Jan-06 07:00N 46°30' W 084°24'0 0.0 310 / 21028.8 -25.8 0.5
2018-Jan-06 06:00N 46°30' W 084°24'0 0.0 330 / 51028.4 -25.0 -0.0
2018-Jan-06 05:00N 46°30' W 084°24'0 0.0 310 / 81028.1 -24.9 -0.0
2018-Jan-06 04:00N 46°30' W 084°24'0 0.0 340 / 81028.1 -24.3 -0.0
2018-Jan-06 03:00N 46°30' W 084°24'4 4.1 360 / 61027.8 -23.2 -0.0
2018-Jan-06 02:00N 46°30' W 084°18'0 0.0 350 / 111027.2 -22.7 -0.0
2018-Jan-06 01:00N 46°30' W 084°18'0 0.0 350 / 151026.9 -21.8 -0.0
2018-Jan-06 00:00N 46°30' W 084°18'0 0.0 350 / 121026.5 -21.0 -0.0
2018-Jan-05 23:00N 46°30' W 084°18'0 0.0 360 / 111025.9 -20.7 -0.0
2018-Jan-05 22:00N 46°30' W 084°18'0 0.0 340 / 141025.5 -20.3 -0.0
2018-Jan-05 21:00N 46°30' W 084°18'7 7.3 340 / 141025.5 -19.6 -0.0
2018-Jan-05 20:00N 46°24' W 084°12'7 7.3 320 / 161024.8 -20.3 -0.0
2018-Jan-05 19:00N 46°18' W 084°06'0 0.0 310 / 151024.8 -21.1 -0.0
2018-Jan-05 18:00N 46°18' W 084°06'6 6.0 310 / 131024.5 -22.6 -0.0
2018-Jan-05 17:00N 46°12' W 084°06'0 0.0 330 / 151025.2 -23.8 -0.0
2018-Jan-05 16:00N 46°12' W 084°06'0 0.0 340 / 111025.5 -24.9 -0.0
2018-Jan-05 15:00N 46°12' W 084°06'0 0.0 320 / 91025.5 -25.8 -0.0
2018-Jan-05 14:00N 46°12' W 084°06'0 0.0 320 / 121024.8 -26.9 -0.0
2018-Jan-05 13:00N 46°12' W 084°06'0 0.0 320 / 121024.5 -26.7 -0.0
2018-Jan-05 12:00N 46°12' W 084°06'0 0.0 310 / 131023.8 -26.4 -0.0
2018-Jan-05 11:00N 46°12' W 084°06'0 0.0 340 / 151023.5 -25.8 -0.0
2018-Jan-05 10:00N 46°12' W 084°06'0 0.0 340 / 131023.2 -25.6 -0.0
2018-Jan-05 09:00N 46°12' W 084°06'0 0.0 320 / 121022.8 -25.6 -0.0
2018-Jan-05 08:00N 46°12' W 084°06'0 0.0 320 / 141022.8 -25.0 -0.0
2018-Jan-05 07:00N 46°12' W 084°06'0 0.0 320 / 121022.5 -24.6 -0.0
2018-Jan-05 06:00N 46°12' W 084°06'0 0.0 320 / 141022.5 -24.4 -0.0
2018-Jan-05 05:00N 46°12' W 084°06'0 0.0 320 / 121022.5 -24.1 -0.0
2018-Jan-05 04:00N 46°12' W 084°06'0 0.0 330 / 121022.5 -23.7 -0.0
2018-Jan-05 03:00N 46°12' W 084°06'0 0.0 350 / 101022.5 -23.4 -0.0
2018-Jan-05 02:00N 46°12' W 084°06'0 0.0 350 / 131022.5 -22.8 -0.0
2018-Jan-05 01:00N 46°12' W 084°06'0 0.0 360 / 131022.1 -22.0 -0.0
2018-Jan-05 00:00N 46°12' W 084°06'7 7.3 350 / 181021.8 -21.2 -0.0
2018-Jan-04 23:00N 46°06' W 084°00'0 0.0 320 / 181021.5 -20.9 -0.0
2018-Jan-04 22:00N 46°06' W 084°00'6 6.0 320 / 161021.5 -20.4 -0.0
2018-Jan-04 21:00N 46°00' W 084°00'7 7.3 320 / 161021.5 -20.5 -0.0
2018-Jan-04 20:00N 45°54' W 083°54'1010.3 330 / 141021.1 -19.7 -0.0
2018-Jan-04 19:00N 45°48' W 083°42'1312.7 340 / 161020.1 -19.3 2.4
2018-Jan-04 18:00N 45°36' W 083°36'319.4 350 / 201019.8 -19.0 2.5
2018-Jan-04 17:51N 45°34' W 083°33'411.4
2018-Jan-04 17:30N 45°31' W 083°30'815.9
2018-Jan-04 17:00N 45°24' W 083°24'7 7.3 020 / 241018.8 -17.2 2.2
2018-Jan-04 16:00N 45°18' W 083°18'1514.7 1019.1 -15.8 1.1
2018-Jan-04 15:00N 45°06' W 083°06'1212.0 010 / 291018.1 -16.5 1.3
2018-Jan-04 14:00N 44°54' W 083°06'1212.0 320 / 341016.4 -15.6 -0.0
2018-Jan-04 13:00N 44°42' W 083°06'1312.7 320 / 341016.0 -15.0 0.1
2018-Jan-04 12:00N 44°30' W 083°12'1010.5 320 / 331016.4 -15.5 0.1
2018-Jan-04 11:00N 44°24' W 083°00'1514.8 320 / 281015.7 -13.3 1.4
2018-Jan-04 10:00N 44°12' W 082°48'1312.8 320 / 251015.4 -11.9 1.9
2018-Jan-04 09:00N 44°00' W 082°42'1514.8 330 / 261014.7 -11.1 -0.0
2018-Jan-04 08:00N 43°48' W 082°30'1212.0 310 / 241014.7 -9.6 0.1
2018-Jan-04 07:00N 43°36' W 082°30'1212.0 310 / 311014.3 -10.4 -0.0
2018-Jan-04 06:00N 43°24' W 082°30'1312.8 300 / 291013.7 -9.9 -0.0
2018-Jan-04 05:00N 43°12' W 082°24'1212.0 310 / 241014.0 -9.1 -0.0
2018-Jan-04 04:00N 43°00' W 082°24'7 7.4 290 / 101014.7 -8.8 -0.0
2018-Jan-04 03:00N 42°54' W 082°30'1212.0 270 / 81015.0 -9.1 -0.0
2018-Jan-04 02:00N 42°42' W 082°30'6 6.0 250 / 81015.4 -8.9 -0.0
2018-Jan-04 01:00N 42°36' W 082°30'1110.7 240 / 111016.0 -8.8 -0.0
2018-Jan-04 00:00N 42°30' W 082°42'7 7.5 240 / 141015.9 -8.4 -0.0
2018-Jan-03 23:00N 42°24' W 082°48'1110.7 230 / 171015.2 -8.9 -0.0
2018-Jan-03 22:00N 42°18' W 083°00'7 7.5 240 / 101015.2 -9.0 -0.0
2018-Jan-03 21:00N 42°12' W 083°06'6 6.0 220 / 121014.8 -9.3 -0.0
2018-Jan-03 20:00N 42°06' W 083°06'1212.0 230 / 181014.4 -9.3 -0.0
2018-Jan-03 19:00N 41°54' W 083°06'0 0.0 220 / 191014.4 -9.4 -0.0
2018-Jan-03 18:00N 41°54' W 083°06'0 0.0 230 / 181015.4 -9.9 -0.0
2018-Jan-03 17:00N 41°54' W 083°06'7 7.5 230 / 181016.1 -9.6 -0.0
2018-Jan-03 16:00N 41°48' W 083°12'1110.8 230 / 161017.4 -10.0 -0.0
2018-Jan-03 15:00N 41°42' W 083°24'4 4.5 230 / 111017.8 -10.6 -0.0
2018-Jan-03 14:00N 41°42' W 083°30'0 0.0 190 / 111018.1 -11.6 0.1
2018-Jan-03 13:00N 41°42' W 083°30'0 0.0 200 / 171018.5 -12.4 0.1
2018-Jan-03 12:00N 41°42' W 083°30'0 0.0 190 / 131018.5 -13.4 0.1
2018-Jan-03 11:00N 41°42' W 083°30'0 0.0 200 / 141018.8 -13.9 0.1
2018-Jan-03 10:00N 41°42' W 083°30'0 0.0 200 / 141019.5 -14.2 -0.0
2018-Jan-03 09:00N 41°42' W 083°30'0 0.0 190 / 121020.8 -14.8 -0.0
2018-Jan-03 08:00N 41°42' W 083°30'0 0.0 200 / 131021.5 -15.4 -0.0
2018-Jan-03 07:00N 41°42' W 083°30'0 0.0 200 / 131021.8 -16.0 -0.0
2018-Jan-03 06:00N 41°42' W 083°30'0 0.0 190 / 121022.5 -16.4 0.1
2018-Jan-03 05:00N 41°42' W 083°30'0 0.0 200 / 121023.5 -16.0 0.1
2018-Jan-03 04:00N 41°42' W 083°30'0 0.0 200 / 141024.2 -16.1 0.1
2018-Jan-03 03:00N 41°42' W 083°30'0 0.0 210 / 161024.5 -16.1 0.2
2018-Jan-03 02:00N 41°42' W 083°30'0 0.0 200 / 181025.2 -15.9 0.1
2018-Jan-03 01:00N 41°42' W 083°30'0 0.0 200 / 161025.9 -15.9 -0.0
2018-Jan-03 00:00N 41°42' W 083°30'0 0.0 200 / 151026.6 -15.9 0.1
2018-Jan-02 23:00N 41°42' W 083°30'0 0.0 200 / 161027.3 -15.7 0.1
2018-Jan-02 22:00N 41°42' W 083°30'0 0.0 210 / 171027.6 -14.9 0.1
2018-Jan-02 21:00N 41°42' W 083°30'0 0.0 200 / 181028.3 -14.8 0.1
2018-Jan-02 20:00N 41°42' W 083°30'0 0.0 190 / 161029.3 -15.0 -0.0
2018-Jan-02 19:00N 41°42' W 083°30'0 0.0 220 / 161029.6 -16.0 0.1
2018-Jan-02 18:00N 41°42' W 083°30'0 0.0 200 / 151030.6 -17.0 0.1
2018-Jan-02 17:00N 41°42' W 083°30'0 0.0 200 / 161031.3 -18.2 0.2
2018-Jan-02 16:00N 41°42' W 083°30'0 0.0 220 / 151032.7 -19.1 0.1
2018-Jan-02 15:00N 41°42' W 083°30'0 0.0 200 / 141033.0 -19.9 0.2
2018-Jan-02 14:00N 41°42' W 083°30'0 0.0 200 / 161033.0 -16.5 0.2
2018-Jan-02 13:00N 41°42' W 083°30'0 0.0 210 / 131033.0 -15.0 0.2
2018-Jan-02 12:00N 41°42' W 083°30'0 0.0 210 / 141033.0 -14.9 0.2
2018-Jan-02 11:00N 41°42' W 083°30'0 0.0 200 / 121033.4 -14.8 0.2
2018-Jan-02 10:00N 41°42' W 083°30'0 0.0 210 / 111034.0 -14.8 0.1
2018-Jan-02 09:00N 41°42' W 083°30'0 0.0 220 / 111034.0 -14.4 0.1
2018-Jan-02 08:00N 41°42' W 083°30'0 0.0 220 / 111034.4 -14.8 -0.0
2018-Jan-02 07:00N 41°42' W 083°30'0 0.0 220 / 141034.4 -15.2 0.1
2018-Jan-02 06:00N 41°42' W 083°30'0 0.0 220 / 131034.4 -15.1 0.1
2018-Jan-02 05:00N 41°42' W 083°30'0 0.0 210 / 131034.7 -14.6 -0.0
2018-Jan-02 04:00N 41°42' W 083°30'0 0.0 220 / 121034.7 -13.4 -0.0
2018-Jan-02 03:00N 41°42' W 083°30'0 0.0 230 / 101034.4 -12.8 -0.0
2018-Jan-02 02:00N 41°42' W 083°30'0 0.0 260 / 121034.4 -12.5 -0.0
2018-Jan-02 01:00N 41°42' W 083°30'0 0.0 260 / 81034.4 -11.4 0.1
2018-Jan-02 00:00N 41°42' W 083°30'0 0.0 250 / 81034.0 -11.1 0.1
2018-Jan-01 23:00N 41°42' W 083°30'0 0.0 270 / 91033.7 -11.1 0.1
2018-Jan-01 22:00N 41°42' W 083°30'0 0.0 230 / 101033.4 -11.1 0.1
2018-Jan-01 21:00N 41°42' W 083°30'0 0.0 280 / 101033.0 -11.0 0.1
2018-Jan-01 20:00N 41°42' W 083°30'0 0.0 250 / 111032.7 -11.5 0.2
2018-Jan-01 19:00N 41°42' W 083°30'0 0.0 250 / 81032.3 -11.3 0.2
2018-Jan-01 18:00N 41°42' W 083°30'0 0.0 260 / 121032.3 -11.5 0.2
2018-Jan-01 17:00N 41°42' W 083°30'0 0.0 290 / 141033.0 -11.9 0.1
2018-Jan-01 16:00N 41°42' W 083°30'0 0.0 270 / 101033.4 -12.5 0.1
2018-Jan-01 15:00N 41°42' W 083°30'0 0.0 260 / 91033.0 -12.9 -0.0
2018-Jan-01 14:00N 41°42' W 083°30'0 0.0 280 / 101032.7 -13.1 -0.0
2018-Jan-01 13:00N 41°42' W 083°30'0 0.0 250 / 91032.0 -13.8 -0.0
2018-Jan-01 12:00N 41°42' W 083°30'0 0.0 220 / 71031.7 -13.9 -0.0
2018-Jan-01 11:00N 41°42' W 083°30'0 0.0 230 / 91031.3 -14.1 0.2
2018-Jan-01 10:00N 41°42' W 083°30'0 0.0 260 / 81031.3 -14.1 0.2
2018-Jan-01 09:00N 41°42' W 083°30'0 0.0 220 / 91031.3 -13.6 0.2
2018-Jan-01 08:00N 41°42' W 083°30'0 0.0 240 / 71031.7 -13.6 0.2
2018-Jan-01 07:00N 41°42' W 083°30'0 0.0 240 / 61031.3 -13.1 0.2
2018-Jan-01 06:00N 41°42' W 083°30'0 0.0 200 / 61031.3 -12.3 0.1
2018-Jan-01 05:00N 41°42' W 083°30'0 0.0 270 / 41031.7 -11.6 0.1
2018-Jan-01 04:00N 41°42' W 083°30'0 0.0 250 / 41031.7 -10.9 0.1
2018-Jan-01 03:00N 41°42' W 083°30'0 0.0 260 / 51031.7 -10.7 0.1
2018-Jan-01 02:00N 41°42' W 083°30'0 0.0 250 / 61031.7 -10.7 0.1
2018-Jan-01 01:00N 41°42' W 083°30'0 0.0 250 / 61031.7 -10.8 0.1
2018-Jan-01 00:00N 41°42' W 083°30'0 0.0 270 / 61031.0 -10.4 0.1
2017-Dec-31 23:00N 41°42' W 083°30'4 4.5 300 / 41030.6 -10.3 0.1
2017-Dec-31 22:00N 41°42' W 083°24'0 0.0 350 / 31030.6 -9.6 0.3
2017-Dec-31 21:00N 41°42' W 083°24'0 0.0
2017-Dec-31 20:00N 41°42' W 083°24'0 0.0 330 / 61030.0 -9.5 0.1
2017-Dec-31 19:00N 41°42' W 083°24'0 0.0 310 / 71030.0 -9.6 0.1
2017-Dec-31 18:00N 41°42' W 083°24'0 0.0 300 / 51030.3 -9.8 -0.0
2017-Dec-31 17:00N 41°42' W 083°24'0 0.0 340 / 41030.3 -10.8 -0.0
2017-Dec-31 16:00N 41°42' W 083°24'0 0.0 270 / 21030.6 -10.7 -0.0
2017-Dec-31 15:00N 41°42' W 083°24'0 0.0 330 / 41031.0 -13.2 -0.0
2017-Dec-31 14:00N 41°42' W 083°24'0 0.0 300 / 31029.6 -14.1 -0.0
2017-Dec-31 13:00N 41°42' W 083°24'0 0.0 310 / 31030.0 -14.3 -0.0
2017-Dec-31 12:00N 41°42' W 083°24'0 0.0 260 / 41030.0 -14.5 -0.0
2017-Dec-31 11:00N 41°42' W 083°24'0 0.0 340 / 41028.3 -14.3 0.1
2017-Dec-31 10:00N 41°42' W 083°24'0 0.0 340 / 51027.9 -14.5 0.4
2017-Dec-31 09:00N 41°42' W 083°24'0 0.0 330 / 51027.9 -14.5 0.5
2017-Dec-31 08:00N 41°42' W 083°24'0 0.0 260 / 41028.3 -15.4 0.5
2017-Dec-31 07:00N 41°42' W 083°24'0 0.0 320 / 61027.6 -15.6 0.5
2017-Dec-31 06:00N 41°42' W 083°24'0 0.0 290 / 61026.9 -15.1 0.5
2017-Dec-31 05:00N 41°42' W 083°24'0 0.0 290 / 61026.6 -14.6 0.4
2017-Dec-31 04:00N 41°42' W 083°24'0 0.0 280 / 91026.6 -14.1 0.4
2017-Dec-31 03:00N 41°42' W 083°24'0 0.0 270 / 81025.9 -13.5 0.4
2017-Dec-31 02:00N 41°42' W 083°24'0 0.0 300 / 81025.2 -13.0 0.3
2017-Dec-31 01:00N 41°42' W 083°24'0 0.0 280 / 61024.5 -12.6 0.4
2017-Dec-31 00:00N 41°42' W 083°24'0 0.0 310 / 61023.9 -12.0 0.4
2017-Dec-30 23:00N 41°42' W 083°24'0 0.0 300 / 51023.2 -11.3 0.3
2017-Dec-30 22:00N 41°42' W 083°24'0 0.0 320 / 101021.8 -10.6 0.2
2017-Dec-30 21:00N 41°42' W 083°24'0 0.0 300 / 111021.2 -10.2 0.2
2017-Dec-30 20:00N 41°42' W 083°24'0 0.0 310 / 101019.8 -9.8 0.2
2017-Dec-30 19:00N 41°42' W 083°24'7 7.5 290 / 201018.5 -9.7 0.2
2017-Dec-30 18:00N 41°48' W 083°18'1110.8 280 / 271016.8 -9.0 -0.0
2017-Dec-30 17:00N 41°54' W 083°06'   300 / 181017.8 -8.0 -0.0
Track history (hours):
 
Tides and Currents Weather Stations Pressure Air Temp Water Temp Dewpoint Dewpoint Depression Visibility Wind Speed Wind Dir Waves Ship Positions

Str. Kaye Barker

Owner: THE INTERLAKE STEAMSHIP COMPANY, Middleburg Heights, OH. More information available from US FCC via Universal Licensing System and Coast Guard Vessel Documentation Center.

Last reported at 2018-Jan-09 16:50 UTC. Time now 2018-Feb-24 04:03 UTC.
Position N 46°44' W 092°05'.
Warning: this ship's position is 45 days out of date.

Length 223 m; draft 7.9 m.

Type: Cargo ship. MMSI: 366904910.

Date/timePositionNaut miles runAvg speedWind from/ knotsBaromVisibWave heightAir tempDewpointWater temp
2018-Jan-09 16:50N 46°44' W 092°05'0 0.0
2018-Jan-09 16:30N 46°44' W 092°05'0 0.0
2018-Jan-09 16:01N 46°44' W 092°05'0 0.0
2018-Jan-09 15:31N 46°44' W 092°05'0 0.1
2018-Jan-09 15:00N 46°44' W 092°06'2157.0
2018-Jan-09 15:00N 46°42' W 092°06'3 5.5 110 / 31020.3 -5.7 -0.0
2018-Jan-09 14:30N 46°45' W 092°06'1 2.5
2018-Jan-09 14:00N 46°46' W 092°06'2141.9
2018-Jan-09 14:00N 46°48' W 092°06'4 7.6 330 / 11020.3 -7.6 -0.0
2018-Jan-09 13:30N 46°48' W 092°01'612.5
2018-Jan-09 13:00N 46°52' W 091°53'2261.9
2018-Jan-09 13:00N 46°54' W 091°54'714.0 010 / 61020.3 -5.5 1.0
2018-Jan-09 12:30N 46°55' W 091°44'714.2
2018-Jan-09 12:00N 47°00' W 091°36'1413.7 020 / 81020.0 -5.0 2.0
2018-Jan-09 11:00N 47°06' W 091°18'1413.6 070 / 61020.0 -4.5 1.5
2018-Jan-09 10:00N 47°12' W 091°00'1010.1 340 / 61020.0 -5.0 1.3
2018-Jan-09 09:00N 47°18' W 090°48'1413.6 010 / 91020.3 -6.0 1.4
2018-Jan-09 08:00N 47°24' W 090°30'1717.1 340 / 91019.6 -6.1 1.5
2018-Jan-09 07:00N 47°36' W 090°12'1413.5 310 / 131018.6 -5.8 1.5
2018-Jan-09 06:00N 47°42' W 089°54'2814.1 340 / 161017.6 -6.4 0.8
2018-Jan-09 04:00N 47°42' W 089°12'1212.1 330 / 211015.9 -6.4 1.2
2018-Jan-09 03:00N 47°42' W 088°54'1212.1 310 / 251014.6 -6.2 1.4
2018-Jan-09 02:00N 47°42' W 088°36'1010.1 320 / 321012.9 -5.6 1.6
2018-Jan-09 01:00N 47°36' W 088°24'1212.1 320 / 321012.2 -4.6 1.6
2018-Jan-09 00:00N 47°36' W 088°06'1010.1 310 / 261012.2 -4.3 1.9
2018-Jan-08 23:00N 47°30' W 087°54'8 8.1 310 / 261010.5 -3.5 1.0
2018-Jan-08 22:00N 47°30' W 087°42'1212.0 320 / 321007.8 -3.4 -0.0
2018-Jan-08 21:00N 47°18' W 087°42'1413.6 300 / 341007.1 -2.9 -0.0
2018-Jan-08 20:00N 47°12' W 088°00'1514.5 290 / 321005.8 -1.6 0.1
2018-Jan-08 19:00N 47°00' W 088°12'0 0.0 280 / 351004.1 -0.4 0.4
2018-Jan-08 18:00N 47°00' W 088°12'0 0.0 280 / 291004.7 -0.1 0.3
2018-Jan-08 17:00N 47°00' W 088°12'0 0.0 280 / 271004.7 -0.0 0.3
2018-Jan-08 16:00N 47°00' W 088°12'0 0.0 280 / 281003.7 0.4 0.3
2018-Jan-08 15:00N 47°00' W 088°12'0 0.0 270 / 281003.0 0.2 0.2
2018-Jan-08 14:00N 47°00' W 088°12'0 0.0 250 / 241003.0 -0.3 0.2
2018-Jan-08 13:00N 47°00' W 088°12'0 0.0 240 / 221003.0 -0.6 0.2
2018-Jan-08 12:00N 47°00' W 088°12'0 0.0 240 / 251003.7 -0.9 0.2
2018-Jan-08 11:00N 47°00' W 088°12'0 0.0 250 / 201004.1 -0.9 0.2
2018-Jan-08 10:00N 47°00' W 088°12'0 0.0 260 / 191004.4 -1.0 0.2
2018-Jan-08 09:00N 47°00' W 088°12'0 0.0 280 / 291003.7 -1.1 0.2
2018-Jan-08 08:00N 47°00' W 088°12'0 0.0 290 / 261003.4 -1.1 0.2
2018-Jan-08 07:00N 47°00' W 088°12'0 0.0 260 / 161004.1 -1.3 0.2
2018-Jan-08 06:00N 47°00' W 088°12'0 0.0 240 / 211003.7 -1.9 0.2
2018-Jan-08 05:00N 47°00' W 088°12'0 0.0 240 / 221003.7 -2.6 0.2
2018-Jan-08 04:00N 47°00' W 088°12'0 0.0 250 / 211003.7 -2.7 0.2
2018-Jan-08 03:00N 47°00' W 088°12'0 0.0 260 / 211004.1 -2.5 0.2
2018-Jan-08 02:00N 47°00' W 088°12'0 0.0 250 / 221004.4 -2.1 0.2
2018-Jan-08 01:00N 47°00' W 088°12'0 0.0 240 / 171004.7 -1.4 0.2
2018-Jan-08 00:00N 47°00' W 088°12'0 0.0 230 / 101005.4 -2.0 0.2
2018-Jan-07 23:00N 47°00' W 088°12'0 0.0 230 / 21005.8 -3.1 0.1
2018-Jan-07 22:00N 47°00' W 088°12'0 0.0 260 / 51005.4 -3.6 0.2
2018-Jan-07 21:00N 47°00' W 088°12'0 0.0 270 / 101005.4 -3.9 0.2
2018-Jan-07 20:00N 47°00' W 088°12'0 0.0 250 / 131005.4 -4.6 0.2
2018-Jan-07 19:00N 47°00' W 088°12'0 0.0 240 / 191006.1 -5.0 0.2
2018-Jan-07 18:00N 47°00' W 088°12'0 0.0 240 / 211006.4 -5.4 0.2
2018-Jan-07 17:00N 47°00' W 088°12'0 0.0 240 / 221007.5 -5.8 0.2
2018-Jan-07 16:00N 47°00' W 088°12'0 0.0 240 / 261008.1 -6.3 0.2
2018-Jan-07 15:00N 47°00' W 088°12'6 6.0 240 / 281008.1 -7.2 0.2
2018-Jan-07 14:00N 47°06' W 088°12'7 7.3 240 / 231008.8 -7.0 0.2
2018-Jan-07 13:00N 47°00' W 088°06'8 8.2 220 / 261008.5 -8.1 0.2
2018-Jan-07 12:00N 47°00' W 087°54'1413.7 220 / 221009.8 -8.1 0.4
2018-Jan-07 11:00N 46°54' W 087°36'1010.2 220 / 151011.2 -8.6 0.1
2018-Jan-07 10:00N 46°48' W 087°24'1312.7 210 / 191012.5 -8.6 0.6
2018-Jan-07 09:00N 46°36' W 087°18'8 8.2 200 / 331013.5 -9.9 0.7
2018-Jan-07 08:00N 46°36' W 087°06'8 8.2 200 / 311014.6 -10.0 0.4
2018-Jan-07 07:00N 46°36' W 086°54'8 8.2 190 / 341016.3 -10.9 0.2
2018-Jan-07 06:00N 46°36' W 086°42'1010.2 180 / 321017.9 -11.7 0.9
2018-Jan-07 05:00N 46°42' W 086°30'1212.3 200 / 351019.3 -11.1 0.9
2018-Jan-07 04:00N 46°42' W 086°12'1413.7 200 / 351021.3 -11.0 -0.0
2018-Jan-07 03:00N 46°48' W 085°54'1212.3 210 / 221023.7 -12.4 0.1
2018-Jan-07 02:00N 46°48' W 085°36'1212.3 170 / 221025.4 -13.8 0.9
2018-Jan-07 01:00N 46°48' W 085°18'1212.3 190 / 211026.8 -14.7 -0.0
2018-Jan-07 00:00N 46°48' W 085°00'1514.6 180 / 181028.8 -15.3 -0.0
2018-Jan-06 23:00N 46°36' W 084°48'1010.2 200 / 141030.1 -15.3 -0.0
2018-Jan-06 22:00N 46°30' W 084°36'8 8.3 190 / 91031.2 -17.1 -0.0
2018-Jan-06 21:00N 46°30' W 084°24'0 0.0 180 / 81031.2 -18.4 -0.0
2018-Jan-06 20:00N 46°30' W 084°24'0 0.0 220 / 51031.5 -18.8 0.2
2018-Jan-06 19:00N 46°30' W 084°24'0 0.0 220 / 41032.2 -19.3 0.2
2018-Jan-06 18:00N 46°30' W 084°24'0 0.0 200 / 41032.8 -19.8 0.2
2018-Jan-06 17:00N 46°30' W 084°24'0 0.0 090 / 21032.8 -20.2 0.4
2018-Jan-06 16:00N 46°30' W 084°24'0 0.0 1033.5 -22.5 0.3
2018-Jan-06 15:00N 46°30' W 084°24'0 0.0 310 / 41033.2 -25.8 0.3
2018-Jan-06 14:00N 46°30' W 084°24'0 0.0 320 / 21032.5 -27.1 0.4
2018-Jan-06 13:00N 46°30' W 084°24'0 0.0 290 / 41032.2 -27.9 0.3
2018-Jan-06 12:00N 46°30' W 084°24'0 0.0 310 / 41031.5 -26.5 0.4
2018-Jan-06 11:00N 46°30' W 084°24'0 0.0 300 / 31031.2 -27.7 0.6
2018-Jan-06 10:00N 46°30' W 084°24'0 0.0 240 / 41030.8 -26.5 0.6
2018-Jan-06 09:00N 46°30' W 084°24'0 0.0 330 / 31029.8 -26.6 0.6
2018-Jan-06 08:00N 46°30' W 084°24'0 0.0 310 / 31029.8 -26.2 0.5
2018-Jan-06 07:00N 46°30' W 084°24'0 0.0 310 / 21028.8 -25.8 0.5
2018-Jan-06 06:00N 46°30' W 084°24'0 0.0 330 / 51028.4 -25.0 -0.0
2018-Jan-06 05:00N 46°30' W 084°24'0 0.0 310 / 81028.1 -24.9 -0.0
2018-Jan-06 04:00N 46°30' W 084°24'0 0.0 340 / 81028.1 -24.3 -0.0
2018-Jan-06 03:00N 46°30' W 084°24'4 4.1 360 / 61027.8 -23.2 -0.0
2018-Jan-06 02:00N 46°30' W 084°18'0 0.0 350 / 111027.2 -22.7 -0.0
2018-Jan-06 01:00N 46°30' W 084°18'0 0.0 350 / 151026.9 -21.8 -0.0
2018-Jan-06 00:00N 46°30' W 084°18'0 0.0 350 / 121026.5 -21.0 -0.0
2018-Jan-05 23:00N 46°30' W 084°18'0 0.0 360 / 111025.9 -20.7 -0.0
2018-Jan-05 22:00N 46°30' W 084°18'0 0.0 340 / 141025.5 -20.3 -0.0
2018-Jan-05 21:00N 46°30' W 084°18'7 7.3 340 / 141025.5 -19.6 -0.0
2018-Jan-05 20:00N 46°24' W 084°12'7 7.3 320 / 161024.8 -20.3 -0.0
2018-Jan-05 19:00N 46°18' W 084°06'0 0.0 310 / 151024.8 -21.1 -0.0
2018-Jan-05 18:00N 46°18' W 084°06'6 6.0 310 / 131024.5 -22.6 -0.0
2018-Jan-05 17:00N 46°12' W 084°06'0 0.0 330 / 151025.2 -23.8 -0.0
2018-Jan-05 16:00N 46°12' W 084°06'0 0.0 340 / 111025.5 -24.9 -0.0
2018-Jan-05 15:00N 46°12' W 084°06'0 0.0 320 / 91025.5 -25.8 -0.0
2018-Jan-05 14:00N 46°12' W 084°06'0 0.0 320 / 121024.8 -26.9 -0.0
2018-Jan-05 13:00N 46°12' W 084°06'0 0.0 320 / 121024.5 -26.7 -0.0
2018-Jan-05 12:00N 46°12' W 084°06'0 0.0 310 / 131023.8 -26.4 -0.0
2018-Jan-05 11:00N 46°12' W 084°06'0 0.0 340 / 151023.5 -25.8 -0.0
2018-Jan-05 10:00N 46°12' W 084°06'0 0.0 340 / 131023.2 -25.6 -0.0
2018-Jan-05 09:00N 46°12' W 084°06'0 0.0 320 / 121022.8 -25.6 -0.0
2018-Jan-05 08:00N 46°12' W 084°06'0 0.0 320 / 141022.8 -25.0 -0.0
2018-Jan-05 07:00N 46°12' W 084°06'0 0.0 320 / 121022.5 -24.6 -0.0
2018-Jan-05 06:00N 46°12' W 084°06'0 0.0 320 / 141022.5 -24.4 -0.0
2018-Jan-05 05:00N 46°12' W 084°06'0 0.0 320 / 121022.5 -24.1 -0.0
2018-Jan-05 04:00N 46°12' W 084°06'0 0.0 330 / 121022.5 -23.7 -0.0
2018-Jan-05 03:00N 46°12' W 084°06'0 0.0 350 / 101022.5 -23.4 -0.0
2018-Jan-05 02:00N 46°12' W 084°06'0 0.0 350 / 131022.5 -22.8 -0.0
2018-Jan-05 01:00N 46°12' W 084°06'0 0.0 360 / 131022.1 -22.0 -0.0
2018-Jan-05 00:00N 46°12' W 084°06'7 7.3 350 / 181021.8 -21.2 -0.0
2018-Jan-04 23:00N 46°06' W 084°00'0 0.0 320 / 181021.5 -20.9 -0.0
2018-Jan-04 22:00N 46°06' W 084°00'6 6.0 320 / 161021.5 -20.4 -0.0
2018-Jan-04 21:00N 46°00' W 084°00'7 7.3 320 / 161021.5 -20.5 -0.0
2018-Jan-04 20:00N 45°54' W 083°54'1010.3 330 / 141021.1 -19.7 -0.0
2018-Jan-04 19:00N 45°48' W 083°42'1312.7 340 / 161020.1 -19.3 2.4
2018-Jan-04 18:00N 45°36' W 083°36'319.4 350 / 201019.8 -19.0 2.5
2018-Jan-04 17:51N 45°34' W 083°33'411.4
2018-Jan-04 17:30N 45°31' W 083°30'815.9
2018-Jan-04 17:00N 45°24' W 083°24'7 7.3 020 / 241018.8 -17.2 2.2
2018-Jan-04 16:00N 45°18' W 083°18'1514.7 1019.1 -15.8 1.1
2018-Jan-04 15:00N 45°06' W 083°06'1212.0 010 / 291018.1 -16.5 1.3
2018-Jan-04 14:00N 44°54' W 083°06'1212.0 320 / 341016.4 -15.6 -0.0
2018-Jan-04 13:00N 44°42' W 083°06'1312.7 320 / 341016.0 -15.0 0.1
2018-Jan-04 12:00N 44°30' W 083°12'1010.5 320 / 331016.4 -15.5 0.1
2018-Jan-04 11:00N 44°24' W 083°00'1514.8 320 / 281015.7 -13.3 1.4
2018-Jan-04 10:00N 44°12' W 082°48'1312.8 320 / 251015.4 -11.9 1.9
2018-Jan-04 09:00N 44°00' W 082°42'1514.8 330 / 261014.7 -11.1 -0.0
2018-Jan-04 08:00N 43°48' W 082°30'1212.0 310 / 241014.7 -9.6 0.1
2018-Jan-04 07:00N 43°36' W 082°30'1212.0 310 / 311014.3 -10.4 -0.0
2018-Jan-04 06:00N 43°24' W 082°30'1312.8 300 / 291013.7 -9.9 -0.0
2018-Jan-04 05:00N 43°12' W 082°24'1212.0 310 / 241014.0 -9.1 -0.0
2018-Jan-04 04:00N 43°00' W 082°24'7 7.4 290 / 101014.7 -8.8 -0.0
2018-Jan-04 03:00N 42°54' W 082°30'1212.0 270 / 81015.0 -9.1 -0.0
2018-Jan-04 02:00N 42°42' W 082°30'6 6.0 250 / 81015.4 -8.9 -0.0
2018-Jan-04 01:00N 42°36' W 082°30'1110.7 240 / 111016.0 -8.8 -0.0
2018-Jan-04 00:00N 42°30' W 082°42'7 7.5 240 / 141015.9 -8.4 -0.0
2018-Jan-03 23:00N 42°24' W 082°48'1110.7 230 / 171015.2 -8.9 -0.0
2018-Jan-03 22:00N 42°18' W 083°00'7 7.5 240 / 101015.2 -9.0 -0.0
2018-Jan-03 21:00N 42°12' W 083°06'6 6.0 220 / 121014.8 -9.3 -0.0
2018-Jan-03 20:00N 42°06' W 083°06'1212.0 230 / 181014.4 -9.3 -0.0
2018-Jan-03 19:00N 41°54' W 083°06'0 0.0 220 / 191014.4 -9.4 -0.0
2018-Jan-03 18:00N 41°54' W 083°06'0 0.0 230 / 181015.4 -9.9 -0.0
2018-Jan-03 17:00N 41°54' W 083°06'7 7.5 230 / 181016.1 -9.6 -0.0
2018-Jan-03 16:00N 41°48' W 083°12'1110.8 230 / 161017.4 -10.0 -0.0
2018-Jan-03 15:00N 41°42' W 083°24'4 4.5 230 / 111017.8 -10.6 -0.0
2018-Jan-03 14:00N 41°42' W 083°30'0 0.0 190 / 111018.1 -11.6 0.1
2018-Jan-03 13:00N 41°42' W 083°30'0 0.0 200 / 171018.5 -12.4 0.1
2018-Jan-03 12:00N 41°42' W 083°30'0 0.0 190 / 131018.5 -13.4 0.1
2018-Jan-03 11:00N 41°42' W 083°30'0 0.0 200 / 141018.8 -13.9 0.1
2018-Jan-03 10:00N 41°42' W 083°30'0 0.0 200 / 141019.5 -14.2 -0.0
2018-Jan-03 09:00N 41°42' W 083°30'0 0.0 190 / 121020.8 -14.8 -0.0
2018-Jan-03 08:00N 41°42' W 083°30'0 0.0 200 / 131021.5 -15.4 -0.0
2018-Jan-03 07:00N 41°42' W 083°30'0 0.0 200 / 131021.8 -16.0 -0.0
2018-Jan-03 06:00N 41°42' W 083°30'0 0.0 190 / 121022.5 -16.4 0.1
2018-Jan-03 05:00N 41°42' W 083°30'0 0.0 200 / 121023.5 -16.0 0.1
2018-Jan-03 04:00N 41°42' W 083°30'0 0.0 200 / 141024.2 -16.1 0.1
2018-Jan-03 03:00N 41°42' W 083°30'0 0.0 210 / 161024.5 -16.1 0.2
2018-Jan-03 02:00N 41°42' W 083°30'0 0.0 200 / 181025.2 -15.9 0.1
2018-Jan-03 01:00N 41°42' W 083°30'0 0.0 200 / 161025.9 -15.9 -0.0
2018-Jan-03 00:00N 41°42' W 083°30'0 0.0 200 / 151026.6 -15.9 0.1
2018-Jan-02 23:00N 41°42' W 083°30'0 0.0 200 / 161027.3 -15.7 0.1
2018-Jan-02 22:00N 41°42' W 083°30'0 0.0 210 / 171027.6 -14.9 0.1
2018-Jan-02 21:00N 41°42' W 083°30'0 0.0 200 / 181028.3 -14.8 0.1
2018-Jan-02 20:00N 41°42' W 083°30'0 0.0 190 / 161029.3 -15.0 -0.0
2018-Jan-02 19:00N 41°42' W 083°30'0 0.0 220 / 161029.6 -16.0 0.1
2018-Jan-02 18:00N 41°42' W 083°30'0 0.0 200 / 151030.6 -17.0 0.1
2018-Jan-02 17:00N 41°42' W 083°30'0 0.0 200 / 161031.3 -18.2 0.2
2018-Jan-02 16:00N 41°42' W 083°30'0 0.0 220 / 151032.7 -19.1 0.1
2018-Jan-02 15:00N 41°42' W 083°30'0 0.0 200 / 141033.0 -19.9 0.2
2018-Jan-02 14:00N 41°42' W 083°30'0 0.0 200 / 161033.0 -16.5 0.2
2018-Jan-02 13:00N 41°42' W 083°30'0 0.0 210 / 131033.0 -15.0 0.2
2018-Jan-02 12:00N 41°42' W 083°30'0 0.0 210 / 141033.0 -14.9 0.2
2018-Jan-02 11:00N 41°42' W 083°30'0 0.0 200 / 121033.4 -14.8 0.2
2018-Jan-02 10:00N 41°42' W 083°30'0 0.0 210 / 111034.0 -14.8 0.1
2018-Jan-02 09:00N 41°42' W 083°30'0 0.0 220 / 111034.0 -14.4 0.1
2018-Jan-02 08:00N 41°42' W 083°30'0 0.0 220 / 111034.4 -14.8 -0.0
2018-Jan-02 07:00N 41°42' W 083°30'0 0.0 220 / 141034.4 -15.2 0.1
2018-Jan-02 06:00N 41°42' W 083°30'0 0.0 220 / 131034.4 -15.1 0.1
2018-Jan-02 05:00N 41°42' W 083°30'0 0.0 210 / 131034.7 -14.6 -0.0
2018-Jan-02 04:00N 41°42' W 083°30'0 0.0 220 / 121034.7 -13.4 -0.0
2018-Jan-02 03:00N 41°42' W 083°30'0 0.0 230 / 101034.4 -12.8 -0.0
2018-Jan-02 02:00N 41°42' W 083°30'0 0.0 260 / 121034.4 -12.5 -0.0
2018-Jan-02 01:00N 41°42' W 083°30'0 0.0 260 / 81034.4 -11.4 0.1
2018-Jan-02 00:00N 41°42' W 083°30'0 0.0 250 / 81034.0 -11.1 0.1
2018-Jan-01 23:00N 41°42' W 083°30'0 0.0 270 / 91033.7 -11.1 0.1
2018-Jan-01 22:00N 41°42' W 083°30'0 0.0 230 / 101033.4 -11.1 0.1
2018-Jan-01 21:00N 41°42' W 083°30'0 0.0 280 / 101033.0 -11.0 0.1
2018-Jan-01 20:00N 41°42' W 083°30'0 0.0 250 / 111032.7 -11.5 0.2
2018-Jan-01 19:00N 41°42' W 083°30'0 0.0 250 / 81032.3 -11.3 0.2
2018-Jan-01 18:00N 41°42' W 083°30'0 0.0 260 / 121032.3 -11.5 0.2
2018-Jan-01 17:00N 41°42' W 083°30'0 0.0 290 / 141033.0 -11.9 0.1
2018-Jan-01 16:00N 41°42' W 083°30'0 0.0 270 / 101033.4 -12.5 0.1
2018-Jan-01 15:00N 41°42' W 083°30'0 0.0 260 / 91033.0 -12.9 -0.0
2018-Jan-01 14:00N 41°42' W 083°30'0 0.0 280 / 101032.7 -13.1 -0.0
2018-Jan-01 13:00N 41°42' W 083°30'0 0.0 250 / 91032.0 -13.8 -0.0
2018-Jan-01 12:00N 41°42' W 083°30'0 0.0 220 / 71031.7 -13.9 -0.0
2018-Jan-01 11:00N 41°42' W 083°30'0 0.0 230 / 91031.3 -14.1 0.2
2018-Jan-01 10:00N 41°42' W 083°30'0 0.0 260 / 81031.3 -14.1 0.2
2018-Jan-01 09:00N 41°42' W 083°30'0 0.0 220 / 91031.3 -13.6 0.2
2018-Jan-01 08:00N 41°42' W 083°30'0 0.0 240 / 71031.7 -13.6 0.2
2018-Jan-01 07:00N 41°42' W 083°30'0 0.0 240 / 61031.3 -13.1 0.2
2018-Jan-01 06:00N 41°42' W 083°30'0 0.0 200 / 61031.3 -12.3 0.1
2018-Jan-01 05:00N 41°42' W 083°30'0 0.0 270 / 41031.7 -11.6 0.1
2018-Jan-01 04:00N 41°42' W 083°30'0 0.0 250 / 41031.7 -10.9 0.1
2018-Jan-01 03:00N 41°42' W 083°30'0 0.0 260 / 51031.7 -10.7 0.1
2018-Jan-01 02:00N 41°42' W 083°30'0 0.0 250 / 61031.7 -10.7 0.1
2018-Jan-01 01:00N 41°42' W 083°30'0 0.0 250 / 61031.7 -10.8 0.1
2018-Jan-01 00:00N 41°42' W 083°30'0 0.0 270 / 61031.0 -10.4 0.1
2017-Dec-31 23:00N 41°42' W 083°30'4 4.5 300 / 41030.6 -10.3 0.1
2017-Dec-31 22:00N 41°42' W 083°24'0 0.0 350 / 31030.6 -9.6 0.3
2017-Dec-31 21:00N 41°42' W 083°24'0 0.0
2017-Dec-31 20:00N 41°42' W 083°24'0 0.0 330 / 61030.0 -9.5 0.1
2017-Dec-31 19:00N 41°42' W 083°24'0 0.0 310 / 71030.0 -9.6 0.1
2017-Dec-31 18:00N 41°42' W 083°24'0 0.0 300 / 51030.3 -9.8 -0.0
2017-Dec-31 17:00N 41°42' W 083°24'0 0.0 340 / 41030.3 -10.8 -0.0
2017-Dec-31 16:00N 41°42' W 083°24'0 0.0 270 / 21030.6 -10.7 -0.0
2017-Dec-31 15:00N 41°42' W 083°24'0 0.0 330 / 41031.0 -13.2 -0.0
2017-Dec-31 14:00N 41°42' W 083°24'0 0.0 300 / 31029.6 -14.1 -0.0
2017-Dec-31 13:00N 41°42' W 083°24'0 0.0 310 / 31030.0 -14.3 -0.0
2017-Dec-31 12:00N 41°42' W 083°24'0 0.0 260 / 41030.0 -14.5 -0.0
2017-Dec-31 11:00N 41°42' W 083°24'0 0.0 340 / 41028.3 -14.3 0.1
2017-Dec-31 10:00N 41°42' W 083°24'0 0.0 340 / 51027.9 -14.5 0.4
2017-Dec-31 09:00N 41°42' W 083°24'0 0.0 330 / 51027.9 -14.5 0.5
2017-Dec-31 08:00N 41°42' W 083°24'0 0.0 260 / 41028.3 -15.4 0.5
2017-Dec-31 07:00N 41°42' W 083°24'0 0.0 320 / 61027.6 -15.6 0.5
2017-Dec-31 06:00N 41°42' W 083°24'0 0.0 290 / 61026.9 -15.1 0.5
2017-Dec-31 05:00N 41°42' W 083°24'0 0.0 290 / 61026.6 -14.6 0.4
2017-Dec-31 04:00N 41°42' W 083°24'0 0.0 280 / 91026.6 -14.1 0.4
2017-Dec-31 03:00N 41°42' W 083°24'0 0.0 270 / 81025.9 -13.5 0.4
2017-Dec-31 02:00N 41°42' W 083°24'0 0.0 300 / 81025.2 -13.0 0.3
2017-Dec-31 01:00N 41°42' W 083°24'0 0.0 280 / 61024.5 -12.6 0.4
2017-Dec-31 00:00N 41°42' W 083°24'0 0.0 310 / 61023.9 -12.0 0.4
2017-Dec-30 23:00N 41°42' W 083°24'0 0.0 300 / 51023.2 -11.3 0.3
2017-Dec-30 22:00N 41°42' W 083°24'0 0.0 320 / 101021.8 -10.6 0.2
2017-Dec-30 21:00N 41°42' W 083°24'0 0.0 300 / 111021.2 -10.2 0.2
2017-Dec-30 20:00N 41°42' W 083°24'0 0.0 310 / 101019.8 -9.8 0.2
2017-Dec-30 19:00N 41°42' W 083°24'7 7.5 290 / 201018.5 -9.7 0.2
2017-Dec-30 18:00N 41°48' W 083°18'1110.8 280 / 271016.8 -9.0 -0.0
2017-Dec-30 17:00N 41°54' W 083°06'   300 / 181017.8 -8.0 -0.0

Dump ship's entire track history